Terminal Aerodrome Forecast
Issued by NWS Charleston, WV

Current Version | Previous Version | Text Only | Print | Product List | Glossary Off
Versions: 1 2 3 4 5 6 7 8 9 10 11 12 13 14 15 16 17 18 19 20 21 22 23 24 25

000
FTUS41 KRLX 200900 AAB
TAFCRW
TAF AMD
KCRW 200941Z 2010/2106 29010G20KT 3SM TSRA BR BKN035CB
      TEMPO 2010/2012 1SM TSRA BR SCT008 BKN015CB OVC035
     FM201200 00000KT 6SM SHRA BR VCTS SCT008 OVC025CB
     FM201600 25007KT P6SM VCTS BKN035CB
     FM202300 23004KT P6SM BKN050
     FM210200 00000KT 6SM BR BKN120
     FM210500 00000KT 2SM BR BKN130=

USA.gov is the U.S. government's official web portal to all federal, state and local government web resources and services.